createdAt,value
2023-02-03T00:00:51.712Z,91.80
2023-02-03T00:03:19.774Z,91.70
2023-02-03T00:05:47.852Z,91.70
2023-02-03T00:08:17.263Z,91.60
2023-02-03T00:10:48.902Z,91.60
2023-02-03T00:13:16.989Z,91.70
2023-02-03T00:15:45.175Z,91.70
2023-02-03T00:18:13.209Z,91.70
2023-02-03T00:20:41.273Z,91.70
2023-02-03T00:23:10.043Z,91.70
2023-02-03T00:25:39.669Z,91.70
2023-02-03T00:28:07.787Z,91.70
2023-02-03T00:30:35.967Z,91.70
2023-02-03T00:33:06.885Z,91.80
2023-02-03T00:35:34.968Z,91.90
2023-02-03T00:38:02.997Z,91.90
2023-02-03T00:40:31.038Z,91.80
2023-02-03T00:43:00.500Z,91.80
2023-02-03T00:45:28.544Z,91.90
2023-02-03T00:47:56.587Z,91.90
2023-02-03T00:50:24.982Z,91.80
2023-02-03T00:52:53.175Z,91.90
2023-02-03T00:55:21.218Z,91.90
2023-02-03T00:57:49.290Z,92.00
2023-02-03T01:00:20.827Z,91.90
2023-02-03T01:02:49.023Z,91.80
2023-02-03T01:05:17.120Z,91.90
2023-02-03T01:07:45.174Z,91.90
2023-02-03T01:10:14.806Z,91.80
2023-02-03T01:12:42.858Z,91.70
2023-02-03T01:15:13.759Z,91.90
2023-02-03T01:17:43.143Z,91.80
2023-02-03T01:20:13.951Z,91.80
2023-02-03T01:22:42.012Z,91.80
2023-02-03T01:25:10.306Z,91.90
2023-02-03T01:27:38.429Z,91.90
2023-02-03T01:30:07.006Z,91.90
2023-02-03T01:32:35.059Z,92.00
2023-02-03T01:35:08.982Z,92.00
2023-02-03T01:37:37.025Z,92.00
2023-02-03T01:40:05.658Z,92.00
2023-02-03T01:42:34.432Z,92.10
2023-02-03T01:45:02.568Z,92.20
2023-02-03T01:47:32.345Z,92.10
2023-02-03T01:50:10.410Z,92.00
2023-02-03T01:52:38.495Z,92.10
2023-02-03T01:55:08.045Z,92.10
2023-02-03T01:57:37.925Z,92.10
2023-02-03T02:00:06.735Z,92.00
2023-02-03T02:02:34.872Z,92.00
2023-02-03T02:05:05.687Z,92.00
2023-02-03T02:07:35.603Z,92.10
2023-02-03T02:10:03.679Z,92.20
2023-02-03T02:12:31.748Z,92.10
2023-02-03T02:14:59.778Z,92.10
2023-02-03T02:17:41.602Z,92.10
2023-02-03T02:21:01.688Z,92.10
2023-02-03T02:24:06.136Z,92.10
2023-02-03T02:26:56.204Z,92.10
2023-02-03T02:29:45.064Z,92.10
2023-02-03T02:32:20.233Z,92.10
2023-02-03T02:34:51.992Z,92.10
2023-02-03T02:37:24.288Z,92.00
2023-02-03T02:39:55.536Z,92.10
2023-02-03T02:42:27.300Z,92.00
2023-02-03T02:44:57.202Z,92.00
2023-02-03T02:47:26.677Z,92.10
2023-02-03T02:49:57.649Z,92.10
2023-02-03T02:52:25.694Z,92.00
2023-02-03T02:54:54.975Z,92.00
2023-02-03T02:57:23.206Z,92.00
2023-02-03T02:59:51.314Z,92.10
2023-02-03T03:02:19.337Z,92.00
2023-02-03T03:04:49.133Z,92.00
2023-02-03T03:07:19.995Z,92.00
2023-02-03T03:09:49.640Z,92.00
2023-02-03T03:12:19.766Z,92.10
2023-02-03T03:14:49.786Z,92.10
2023-02-03T03:17:18.831Z,92.00
2023-02-03T03:19:50.648Z,92.00
2023-02-03T03:22:19.045Z,92.00
2023-02-03T03:24:48.636Z,92.10
2023-02-03T03:27:20.246Z,92.10
2023-02-03T03:29:49.841Z,92.10
2023-02-03T03:32:17.963Z,92.00
2023-02-03T03:34:45.994Z,91.90
2023-02-03T03:37:17.487Z,92.00
2023-02-03T03:39:47.746Z,91.90
2023-02-03T03:42:20.364Z,91.90
2023-02-03T03:44:52.208Z,92.00
2023-02-03T03:47:47.846Z,92.00
2023-02-03T03:50:18.846Z,91.90
2023-02-03T03:52:56.835Z,91.80
2023-02-03T03:55:25.084Z,91.80
2023-02-03T03:57:54.678Z,91.80
2023-02-03T04:00:25.725Z,91.80
2023-02-03T04:02:55.166Z,91.80
2023-02-03T04:05:24.150Z,91.80
2023-02-03T04:07:52.200Z,91.70
2023-02-03T04:10:28.735Z,91.70
2023-02-03T04:12:56.955Z,91.80
2023-02-03T04:15:25.085Z,91.70
2023-02-03T04:17:54.599Z,91.70
2023-02-03T04:20:22.717Z,91.70
2023-02-03T04:22:50.941Z,91.70
2023-02-03T04:25:19.116Z,91.70
2023-02-03T04:27:50.482Z,91.60
2023-02-03T04:30:19.348Z,91.70
2023-02-03T04:32:47.430Z,91.60
2023-02-03T04:35:15.563Z,91.60
2023-02-03T04:37:43.620Z,91.70
2023-02-03T04:40:12.723Z,91.60
2023-02-03T04:42:40.825Z,91.70
2023-02-03T04:45:12.037Z,91.70
2023-02-03T04:47:40.400Z,91.70
2023-02-03T04:50:09.111Z,91.70
2023-02-03T04:52:37.170Z,91.70
2023-02-03T04:55:07.914Z,91.70
2023-02-03T04:57:35.946Z,91.80
2023-02-03T05:00:04.024Z,91.70
2023-02-03T05:02:33.460Z,91.70
2023-02-03T05:05:01.514Z,91.70
2023-02-03T05:07:29.566Z,91.70
2023-02-03T05:09:57.604Z,91.70
2023-02-03T05:12:25.648Z,91.70
2023-02-03T05:14:53.700Z,91.70
2023-02-03T05:17:21.766Z,91.70
2023-02-03T05:19:51.168Z,91.70
2023-02-03T05:22:19.224Z,91.70
2023-02-03T05:24:47.443Z,91.70
2023-02-03T05:27:15.484Z,91.70
2023-02-03T05:29:43.505Z,91.70
2023-02-03T05:32:11.561Z,91.70
2023-02-03T05:34:41.389Z,91.70
2023-02-03T05:37:11.792Z,91.60
2023-02-03T05:39:39.816Z,91.60
2023-02-03T05:42:06.863Z,91.60
2023-02-03T05:44:34.912Z,91.60
2023-02-03T05:47:02.965Z,91.60
2023-02-03T05:49:30.976Z,91.60
2023-02-03T05:51:59.075Z,91.60
2023-02-03T05:54:28.573Z,91.50
2023-02-03T05:56:56.632Z,91.60
2023-02-03T05:59:24.681Z,91.50
2023-02-03T06:01:52.731Z,91.50
2023-02-03T06:04:20.873Z,91.50
2023-02-03T06:06:48.953Z,91.50
2023-02-03T06:09:16.981Z,91.50
2023-02-03T06:11:46.410Z,91.50
2023-02-03T06:14:14.461Z,91.50
2023-02-03T06:16:42.600Z,91.50
2023-02-03T06:19:10.789Z,91.50
2023-02-03T06:21:38.859Z,91.50
2023-02-03T06:24:07.213Z,91.60
2023-02-03T06:26:35.269Z,91.50
2023-02-03T06:29:04.729Z,91.50
2023-02-03T06:31:32.849Z,91.50
2023-02-03T06:34:02.666Z,91.50
2023-02-03T06:36:30.731Z,91.50
2023-02-03T06:38:59.279Z,91.50
2023-02-03T06:41:30.683Z,91.50
2023-02-03T06:43:58.875Z,91.40
2023-02-03T06:46:30.257Z,91.50
2023-02-03T06:48:58.398Z,91.50
2023-02-03T06:51:26.465Z,91.50
2023-02-03T06:53:54.550Z,91.50
2023-02-03T06:56:22.596Z,91.60
2023-02-03T06:58:50.633Z,91.60
2023-02-03T07:01:18.754Z,91.50
2023-02-03T07:03:48.307Z,91.50
2023-02-03T07:06:16.333Z,91.50
2023-02-03T07:08:44.455Z,91.50
2023-02-03T07:11:13.222Z,91.50
2023-02-03T07:13:41.261Z,91.50
2023-02-03T07:16:09.362Z,91.50
2023-02-03T07:18:47.467Z,91.50
2023-02-03T07:21:17.898Z,91.60
2023-02-03T07:23:48.105Z,91.60
2023-02-03T07:26:16.123Z,91.60
2023-02-03T07:28:44.227Z,91.60
2023-02-03T07:31:12.389Z,91.60
2023-02-03T07:33:40.597Z,91.70
2023-02-03T07:36:09.717Z,91.80
2023-02-03T07:38:39.152Z,91.70
2023-02-03T07:41:07.394Z,91.80
2023-02-03T07:43:35.464Z,91.80
2023-02-03T07:46:03.520Z,91.80
2023-02-03T07:48:31.551Z,91.80
2023-02-03T07:50:59.584Z,91.80
2023-02-03T07:53:27.783Z,91.80
2023-02-03T07:56:00.299Z,91.80
2023-02-03T07:58:28.342Z,91.80
2023-02-03T08:00:57.337Z,91.80
2023-02-03T08:03:25.376Z,91.80
2023-02-03T08:05:53.599Z,91.80
2023-02-03T08:08:21.685Z,91.80
2023-02-03T08:10:49.751Z,91.80
2023-02-03T08:13:19.210Z,91.80
2023-02-03T08:15:49.269Z,91.70
2023-02-03T08:18:17.412Z,91.60
2023-02-03T08:20:45.466Z,91.70
2023-02-03T08:23:13.529Z,91.70
2023-02-03T08:25:41.556Z,91.80
2023-02-03T08:28:09.667Z,91.80
2023-02-03T08:30:39.512Z,91.70
2023-02-03T08:33:07.561Z,91.70
2023-02-03T08:35:35.717Z,91.70
2023-02-03T08:38:03.735Z,91.70
2023-02-03T08:40:31.774Z,91.70
2023-02-03T08:43:01.344Z,91.70
2023-02-03T08:45:29.441Z,91.70
2023-02-03T08:47:58.897Z,91.70
2023-02-03T08:50:27.198Z,91.70
2023-02-03T08:52:55.476Z,91.70
2023-02-03T08:55:24.637Z,91.70
2023-02-03T08:57:52.698Z,91.70
2023-02-03T09:00:21.771Z,91.70
2023-02-03T09:02:49.799Z,91.80
2023-02-03T09:05:19.375Z,91.70
2023-02-03T09:07:49.295Z,91.70
2023-02-03T09:10:17.704Z,91.70
2023-02-03T09:12:45.729Z,91.70
2023-02-03T09:15:13.783Z,91.60
2023-02-03T09:17:41.821Z,91.70
2023-02-03T09:20:13.375Z,91.70
2023-02-03T09:22:42.919Z,91.60
2023-02-03T09:25:11.099Z,91.70
2023-02-03T09:27:39.157Z,91.70
2023-02-03T09:30:08.292Z,91.70
2023-02-03T09:32:36.343Z,91.70
2023-02-03T09:35:04.473Z,91.70
2023-02-03T09:37:32.546Z,91.60
2023-02-03T09:40:02.591Z,91.70
2023-02-03T09:42:41.530Z,91.70
2023-02-03T09:45:14.350Z,91.70
2023-02-03T09:47:42.968Z,91.70
2023-02-03T09:50:13.836Z,91.70
2023-02-03T09:52:44.242Z,91.80
2023-02-03T09:55:18.443Z,91.80
2023-02-03T09:57:48.601Z,91.80
2023-02-03T10:00:20.746Z,91.80
2023-02-03T10:02:55.771Z,91.70
2023-02-03T10:05:26.618Z,91.70
2023-02-03T10:08:00.423Z,91.70
2023-02-03T10:10:36.957Z,91.60
2023-02-03T10:13:15.714Z,91.70
2023-02-03T10:16:11.587Z,91.70
2023-02-03T10:18:41.382Z,91.60
2023-02-03T10:21:14.585Z,91.60
2023-02-03T10:23:43.903Z,91.70
2023-02-03T10:26:15.925Z,91.60
2023-02-03T10:28:46.940Z,91.70
2023-02-03T10:31:18.159Z,91.70
2023-02-03T10:33:46.249Z,91.70
2023-02-03T10:36:18.440Z,91.70
2023-02-03T10:38:50.298Z,91.60
2023-02-03T10:41:20.295Z,91.70
2023-02-03T10:43:48.391Z,91.70
2023-02-03T10:46:16.542Z,91.70
2023-02-03T10:48:44.613Z,91.70
2023-02-03T10:51:16.769Z,91.80
2023-02-03T10:53:46.218Z,91.80
2023-02-03T10:56:15.335Z,91.60
2023-02-03T10:58:50.430Z,91.60
2023-02-03T11:01:19.162Z,91.70
2023-02-03T11:03:59.505Z,91.80
2023-02-03T11:06:27.671Z,91.90
2023-02-03T11:08:55.703Z,91.70
2023-02-03T11:11:25.888Z,91.80
2023-02-03T11:13:56.468Z,91.70
2023-02-03T11:16:25.574Z,91.80
2023-02-03T11:18:57.550Z,91.80
2023-02-03T11:21:27.045Z,91.70
2023-02-03T11:23:57.674Z,91.70
2023-02-03T11:26:28.635Z,91.80
2023-02-03T11:28:59.657Z,91.90
2023-02-03T11:31:32.758Z,91.80
2023-02-03T11:34:02.359Z,91.80
2023-02-03T11:36:31.666Z,91.80
2023-02-03T11:39:19.995Z,92.00
2023-02-03T11:41:48.281Z,92.00
2023-02-03T11:44:22.646Z,91.80
2023-02-03T11:46:53.119Z,92.10
2023-02-03T11:50:02.025Z,92.20
2023-02-03T11:52:55.437Z,92.10
2023-02-03T11:55:34.827Z,92.30
2023-02-03T11:58:32.269Z,92.20
2023-02-03T12:01:05.540Z,92.30
2023-02-03T12:03:55.741Z,92.30
2023-02-03T12:07:00.035Z,92.20
2023-02-03T12:09:33.270Z,92.30
2023-02-03T12:12:43.621Z,92.20
2023-02-03T12:15:21.939Z,92.30
2023-02-03T12:18:07.537Z,92.30
2023-02-03T12:20:50.475Z,92.20
2023-02-03T12:23:28.302Z,92.30
2023-02-03T12:26:02.256Z,92.30
2023-02-03T12:28:41.683Z,92.10
2023-02-03T12:31:12.739Z,92.30
2023-02-03T12:33:44.711Z,92.20
2023-02-03T12:36:14.898Z,92.10
2023-02-03T12:38:45.331Z,92.10
2023-02-03T12:41:14.807Z,92.10
2023-02-03T12:43:49.177Z,92.30
2023-02-03T12:46:19.311Z,92.40
2023-02-03T12:48:52.007Z,92.40
2023-02-03T12:51:25.818Z,92.40
2023-02-03T12:53:56.730Z,92.40
2023-02-03T12:56:27.114Z,92.20
2023-02-03T12:58:57.304Z,92.20
2023-02-03T13:01:27.085Z,92.20
2023-02-03T13:03:59.513Z,92.20
2023-02-03T13:06:33.327Z,92.20
2023-02-03T13:09:04.010Z,92.20
2023-02-03T13:11:35.049Z,92.40
2023-02-03T13:14:05.148Z,92.30
2023-02-03T13:16:35.192Z,92.50
2023-02-03T13:19:06.891Z,92.40
2023-02-03T13:21:34.937Z,92.30
2023-02-03T13:24:04.742Z,92.40
2023-02-03T13:27:00.852Z,92.40
2023-02-03T13:29:40.863Z,92.30
2023-02-03T13:32:16.174Z,92.30
2023-02-03T13:34:55.869Z,92.30
2023-02-03T13:37:34.406Z,92.30
2023-02-03T13:40:25.544Z,92.40
2023-02-03T13:42:55.387Z,92.50
2023-02-03T13:45:26.679Z,92.40
2023-02-03T13:47:56.102Z,92.30
2023-02-03T13:50:26.867Z,92.30
2023-02-03T13:52:57.575Z,92.30
2023-02-03T13:55:35.319Z,92.30
2023-02-03T13:58:04.302Z,92.30
2023-02-03T14:01:02.246Z,92.30
2023-02-03T14:03:43.705Z,92.40
2023-02-03T14:06:58.905Z,92.30
2023-02-03T14:09:49.511Z,92.40
2023-02-03T14:12:34.369Z,92.40
2023-02-03T14:15:14.282Z,92.40
2023-02-03T14:18:28.196Z,92.40
2023-02-03T14:21:11.806Z,92.50
2023-02-03T14:23:43.977Z,92.70
2023-02-03T14:26:25.664Z,92.60
2023-02-03T14:28:54.062Z,92.60
2023-02-03T14:31:22.893Z,92.70
2023-02-03T14:34:15.883Z,92.60
2023-02-03T14:36:54.955Z,92.60
2023-02-03T14:39:57.533Z,92.60
2023-02-03T14:42:37.847Z,92.70
2023-02-03T14:45:12.806Z,92.70
2023-02-03T14:47:48.999Z,92.60
2023-02-03T14:50:27.579Z,92.60
2023-02-03T14:53:22.691Z,92.60
2023-02-03T14:55:55.132Z,92.60
2023-02-03T14:58:29.217Z,92.60
2023-02-03T15:01:01.632Z,92.60
2023-02-03T15:03:31.128Z,92.60
2023-02-03T15:06:01.494Z,92.60
2023-02-03T15:08:37.343Z,92.60
2023-02-03T15:11:30.601Z,92.60
2023-02-03T15:14:19.318Z,92.60
2023-02-03T15:16:47.607Z,92.50
2023-02-03T15:19:19.077Z,92.50
2023-02-03T15:21:47.364Z,92.50
2023-02-03T15:24:18.688Z,92.50
2023-02-03T15:26:47.110Z,92.40
2023-02-03T15:29:24.758Z,92.40
2023-02-03T15:31:55.645Z,92.40
2023-02-03T15:34:27.047Z,92.40
2023-02-03T15:36:56.680Z,92.30
2023-02-03T15:39:36.179Z,92.40
2023-02-03T15:42:06.223Z,92.40
2023-02-03T15:44:36.823Z,92.40
2023-02-03T15:47:05.279Z,92.30
2023-02-03T15:49:35.174Z,92.30
2023-02-03T15:52:04.136Z,92.30
2023-02-03T15:54:40.438Z,92.30
2023-02-03T15:57:11.025Z,92.30
2023-02-03T15:59:41.201Z,92.30
2023-02-03T16:02:15.956Z,92.30
2023-02-03T16:04:50.252Z,92.30
2023-02-03T16:07:19.365Z,92.20
2023-02-03T16:09:47.411Z,92.20
2023-02-03T16:12:19.511Z,92.20
2023-02-03T16:14:48.958Z,92.20
2023-02-03T16:17:28.542Z,92.20
2023-02-03T16:20:22.870Z,92.10
2023-02-03T16:23:05.496Z,92.10
2023-02-03T16:25:34.483Z,92.10
2023-02-03T16:28:20.407Z,92.00
2023-02-03T16:31:15.065Z,92.10
2023-02-03T16:34:03.945Z,92.00
2023-02-03T16:36:49.347Z,92.00
2023-02-03T16:39:34.744Z,92.00
2023-02-03T16:42:20.240Z,91.80
2023-02-03T16:45:05.940Z,91.80
2023-02-03T16:47:52.773Z,91.80
2023-02-03T16:50:39.902Z,91.70
2023-02-03T16:53:08.496Z,91.70
2023-02-03T16:55:36.550Z,91.70
2023-02-03T16:58:04.604Z,91.60
2023-02-03T17:00:32.678Z,91.60
2023-02-03T17:03:04.366Z,91.60
2023-02-03T17:05:32.727Z,91.50
2023-02-03T17:08:00.953Z,91.50
2023-02-03T17:10:31.775Z,91.50
2023-02-03T17:12:59.843Z,91.40
2023-02-03T17:15:28.090Z,91.40
2023-02-03T17:17:56.271Z,91.40
2023-02-03T17:20:25.893Z,91.30
2023-02-03T17:22:55.901Z,91.30
2023-02-03T17:25:23.974Z,91.30
2023-02-03T17:27:52.098Z,91.20
2023-02-03T17:30:25.848Z,91.20
2023-02-03T17:32:53.916Z,91.20
2023-02-03T17:35:21.940Z,91.10
2023-02-03T17:37:51.363Z,91.10
2023-02-03T17:54:16.688Z,90.90
2023-02-03T17:56:47.504Z,90.90
2023-02-03T17:59:15.540Z,90.80
2023-02-03T18:05:32.555Z,90.80
2023-02-03T18:08:05.911Z,90.80
2023-02-03T18:10:41.660Z,90.70
2023-02-03T18:13:09.728Z,90.70
2023-02-03T18:15:38.807Z,90.70
2023-02-03T18:18:08.069Z,90.60
2023-02-03T18:20:36.151Z,90.60
2023-02-03T18:23:04.224Z,90.50
2023-02-03T18:25:32.258Z,90.50
2023-02-03T18:28:01.794Z,90.50
2023-02-03T18:30:30.128Z,90.50
2023-02-03T18:32:59.910Z,90.50
2023-02-03T18:35:27.952Z,90.50
2023-02-03T18:37:56.003Z,90.50
2023-02-03T18:40:24.072Z,90.50
2023-02-03T18:42:52.144Z,90.50
2023-02-03T18:45:21.597Z,90.50
2023-02-03T18:47:49.639Z,90.50
2023-02-03T18:50:17.910Z,90.50
2023-02-03T18:52:46.134Z,90.50
2023-02-03T18:55:14.246Z,90.50
2023-02-03T18:57:42.297Z,90.50
2023-02-03T19:00:11.640Z,90.50
2023-02-03T19:02:41.076Z,90.50
2023-02-03T19:05:09.681Z,90.50
2023-02-03T19:07:37.998Z,90.50
2023-02-03T19:10:06.462Z,90.50
2023-02-03T19:12:34.482Z,90.50
2023-02-03T19:15:02.564Z,90.50
2023-02-03T19:17:30.740Z,90.50
2023-02-03T19:20:00.172Z,90.50
2023-02-03T19:22:28.204Z,90.50
2023-02-03T19:24:56.880Z,90.50
2023-02-03T19:27:24.907Z,90.50
2023-02-03T19:29:52.940Z,90.50
2023-02-03T19:32:21.044Z,90.50
2023-02-03T19:34:49.143Z,90.50
2023-02-03T19:37:18.550Z,90.40
2023-02-03T19:39:50.347Z,90.40
2023-02-03T19:42:19.946Z,90.40
2023-02-03T19:44:47.938Z,90.40
2023-02-03T19:47:16.149Z,90.40
2023-02-03T19:49:47.302Z,90.40
2023-02-03T19:52:15.353Z,90.40
2023-02-03T19:54:44.782Z,90.40
2023-02-03T19:57:12.870Z,90.40
2023-02-03T19:59:40.974Z,90.40
2023-02-03T20:02:14.301Z,90.40
2023-02-03T20:04:44.187Z,90.30
2023-02-03T20:07:12.681Z,90.30
2023-02-03T20:09:40.743Z,90.30
2023-02-03T20:12:10.213Z,90.30
2023-02-03T20:14:38.296Z,90.30
2023-02-03T20:17:07.540Z,90.30
2023-02-03T20:19:35.603Z,90.20
2023-02-03T20:22:03.662Z,90.20
2023-02-03T20:24:31.706Z,90.20
2023-02-03T20:26:59.748Z,90.20
2023-02-03T20:29:29.325Z,90.20
2023-02-03T20:31:58.727Z,90.10
2023-02-03T20:34:27.437Z,90.10
2023-02-03T20:36:58.539Z,90.10
2023-02-03T20:39:26.615Z,90.10
2023-02-03T20:41:54.659Z,90.10
2023-02-03T20:44:22.855Z,90.00
2023-02-03T20:46:53.527Z,90.00
2023-02-03T20:49:21.731Z,90.00
2023-02-03T20:51:49.765Z,89.90
2023-02-03T20:54:18.581Z,89.90
2023-02-03T20:56:46.770Z,89.90
2023-02-03T20:59:15.225Z,89.90
2023-02-03T21:01:43.391Z,89.80
2023-02-03T21:04:32.230Z,89.80
2023-02-03T21:07:00.253Z,89.70
2023-02-03T21:09:31.939Z,89.70
2023-02-03T21:12:00.004Z,89.70
2023-02-03T21:14:36.659Z,89.70
2023-02-03T21:17:04.783Z,89.60
2023-02-03T21:19:35.246Z,89.50
2023-02-03T21:22:05.424Z,89.50
2023-02-03T21:24:35.541Z,89.50
2023-02-03T21:27:03.650Z,89.40
2023-02-03T21:29:33.841Z,89.40
2023-02-03T21:32:01.956Z,89.30
2023-02-03T21:34:30.761Z,89.20
2023-02-03T21:37:02.848Z,89.20
2023-02-03T21:39:31.696Z,89.20
2023-02-03T21:42:02.093Z,89.10
2023-02-03T21:44:32.480Z,89.10
2023-02-03T21:47:02.876Z,89.10
2023-02-03T21:49:30.944Z,89.10
2023-02-03T21:52:00.409Z,89.00
2023-02-03T21:54:30.253Z,89.00
2023-02-03T21:56:58.819Z,89.00
2023-02-03T21:59:29.637Z,89.00
2023-02-03T22:01:58.547Z,88.90
2023-02-03T22:04:27.205Z,88.90
2023-02-03T22:06:55.359Z,88.80
2023-02-03T22:09:25.547Z,88.80
2023-02-03T22:11:53.726Z,88.70
2023-02-03T22:14:21.849Z,88.70
2023-02-03T22:16:49.895Z,88.80
2023-02-03T22:19:18.458Z,88.80
2023-02-03T22:21:48.555Z,88.70
2023-02-03T22:24:16.638Z,88.60
2023-02-03T22:26:46.018Z,88.60
2023-02-03T22:29:14.061Z,88.60
2023-02-03T22:31:42.792Z,88.60
2023-02-03T22:34:10.988Z,88.50
2023-02-03T22:36:44.020Z,88.50
2023-02-03T22:39:14.042Z,88.50
2023-02-03T22:41:42.105Z,88.50
2023-02-03T22:44:16.054Z,88.40
2023-02-03T22:46:44.250Z,88.40
2023-02-03T22:49:12.266Z,88.40
2023-02-03T22:51:40.693Z,88.40
2023-02-03T22:54:08.745Z,88.40
2023-02-03T22:56:36.817Z,88.40
2023-02-03T22:59:04.865Z,88.40
2023-02-03T23:01:34.620Z,88.30
2023-02-03T23:04:02.732Z,88.30
2023-02-03T23:06:30.798Z,88.40
2023-02-03T23:08:58.810Z,88.30
2023-02-03T23:11:26.946Z,88.30
2023-02-03T23:13:55.025Z,88.30
2023-02-03T23:16:23.171Z,88.30
2023-02-03T23:18:52.564Z,88.30
2023-02-03T23:21:20.607Z,88.30
2023-02-03T23:23:48.635Z,88.20
2023-02-03T23:26:16.731Z,88.30
2023-02-03T23:28:44.758Z,88.30
2023-02-03T23:31:15.300Z,88.30
2023-02-03T23:34:03.998Z,88.30
2023-02-03T23:36:32.451Z,88.20
2023-02-03T23:39:00.494Z,88.20
2023-02-03T23:41:28.561Z,88.20
2023-02-03T23:43:56.583Z,88.20
2023-02-03T23:46:26.563Z,88.20
2023-02-03T23:48:54.905Z,88.00
2023-02-03T23:51:22.955Z,88.00
2023-02-03T23:53:52.338Z,88.20
2023-02-03T23:56:20.380Z,88.20
2023-02-03T23:58:48.524Z,88.20
